sensor_id;sensor_type;location;lat;lon;timestamp;P1;durP1;ratioP1;P2;durP2;ratioP2
56233;SDS011;42141;53.240;6.580;2023-04-24T00:00:15;7.45;;;4.05;;
56233;SDS011;42141;53.240;6.580;2023-04-24T00:02:42;8.77;;;4.07;;
56233;SDS011;42141;53.240;6.580;2023-04-24T00:05:13;6.13;;;3.92;;
56233;SDS011;42141;53.240;6.580;2023-04-24T00:07:40;5.55;;;4.25;;
56233;SDS011;42141;53.240;6.580;2023-04-24T00:10:06;6.95;;;4.50;;
56233;SDS011;42141;53.240;6.580;2023-04-24T00:12:33;6.97;;;4.35;;
56233;SDS011;42141;53.240;6.580;2023-04-24T00:14:58;7.80;;;4.55;;
56233;SDS011;42141;53.240;6.580;2023-04-24T00:17:24;6.47;;;4.55;;
56233;SDS011;42141;53.240;6.580;2023-04-24T00:19:50;7.72;;;5.13;;
56233;SDS011;42141;53.240;6.580;2023-04-24T00:22:16;8.10;;;4.40;;
56233;SDS011;42141;53.240;6.580;2023-04-24T00:24:42;5.88;;;4.32;;
56233;SDS011;42141;53.240;6.580;2023-04-24T00:27:08;6.53;;;4.30;;
56233;SDS011;42141;53.240;6.580;2023-04-24T00:29:34;5.22;;;3.25;;
56233;SDS011;42141;53.240;6.580;2023-04-24T00:32:00;6.50;;;3.67;;
56233;SDS011;42141;53.240;6.580;2023-04-24T00:34:25;7.00;;;3.92;;
56233;SDS011;42141;53.240;6.580;2023-04-24T00:36:54;4.18;;;3.40;;
56233;SDS011;42141;53.240;6.580;2023-04-24T00:39:20;5.53;;;3.60;;
56233;SDS011;42141;53.240;6.580;2023-04-24T00:41:46;4.43;;;3.47;;
56233;SDS011;42141;53.240;6.580;2023-04-24T00:44:13;4.00;;;3.20;;
56233;SDS011;42141;53.240;6.580;2023-04-24T00:46:39;5.18;;;2.28;;
56233;SDS011;42141;53.240;6.580;2023-04-24T00:49:06;3.40;;;2.35;;
56233;SDS011;42141;53.240;6.580;2023-04-24T00:51:32;2.30;;;1.55;;
56233;SDS011;42141;53.240;6.580;2023-04-24T00:54:01;1.10;;;1.00;;
56233;SDS011;42141;53.240;6.580;2023-04-24T00:56:27;2.15;;;0.90;;
56233;SDS011;42141;53.240;6.580;2023-04-24T00:58:53;1.13;;;0.88;;
56233;SDS011;42141;53.240;6.580;2023-04-24T01:01:20;1.38;;;0.70;;
56233;SDS011;42141;53.240;6.580;2023-04-24T01:03:46;0.95;;;0.60;;
56233;SDS011;42141;53.240;6.580;2023-04-24T01:06:15;1.70;;;0.82;;
56233;SDS011;42141;53.240;6.580;2023-04-24T01:08:40;2.70;;;0.70;;
56233;SDS011;42141;53.240;6.580;2023-04-24T01:11:07;5.03;;;0.85;;
56233;SDS011;42141;53.240;6.580;2023-04-24T01:13:33;0.85;;;0.60;;
56233;SDS011;42141;53.240;6.580;2023-04-24T01:15:59;2.67;;;0.52;;
56233;SDS011;42141;53.240;6.580;2023-04-24T01:18:26;5.15;;;0.60;;
56233;SDS011;42141;53.240;6.580;2023-04-24T01:20:59;0.70;;;0.50;;
56233;SDS011;42141;53.240;6.580;2023-04-24T01:23:29;1.13;;;0.52;;
56233;SDS011;42141;53.240;6.580;2023-04-24T01:25:55;1.83;;;0.55;;
56233;SDS011;42141;53.240;6.580;2023-04-24T01:28:20;0.75;;;0.43;;
56233;SDS011;42141;53.240;6.580;2023-04-24T01:30:47;0.68;;;0.60;;
56233;SDS011;42141;53.240;6.580;2023-04-24T01:33:13;0.60;;;0.50;;
56233;SDS011;42141;53.240;6.580;2023-04-24T01:35:39;3.30;;;0.60;;
56233;SDS011;42141;53.240;6.580;2023-04-24T01:38:05;0.40;;;0.40;;
56233;SDS011;42141;53.240;6.580;2023-04-24T01:40:31;0.90;;;0.60;;
56233;SDS011;42141;53.240;6.580;2023-04-24T01:42:57;0.60;;;0.50;;
56233;SDS011;42141;53.240;6.580;2023-04-24T01:45:23;0.80;;;0.68;;
56233;SDS011;42141;53.240;6.580;2023-04-24T01:47:49;0.65;;;0.60;;
56233;SDS011;42141;53.240;6.580;2023-04-24T01:50:15;2.08;;;0.82;;
56233;SDS011;42141;53.240;6.580;2023-04-24T01:52:41;1.38;;;0.75;;
56233;SDS011;42141;53.240;6.580;2023-04-24T01:55:07;0.80;;;0.73;;
56233;SDS011;42141;53.240;6.580;2023-04-24T01:57:33;2.47;;;0.90;;
56233;SDS011;42141;53.240;6.580;2023-04-24T02:00:03;1.40;;;1.20;;
56233;SDS011;42141;53.240;6.580;2023-04-24T02:02:29;1.30;;;1.20;;
56233;SDS011;42141;53.240;6.580;2023-04-24T02:04:56;1.10;;;1.00;;
56233;SDS011;42141;53.240;6.580;2023-04-24T02:07:22;1.10;;;1.00;;
56233;SDS011;42141;53.240;6.580;2023-04-24T02:09:48;3.42;;;1.77;;
56233;SDS011;42141;53.240;6.580;2023-04-24T02:12:14;1.77;;;1.15;;
56233;SDS011;42141;53.240;6.580;2023-04-24T02:14:40;1.73;;;1.63;;
56233;SDS011;42141;53.240;6.580;2023-04-24T02:17:07;1.73;;;1.60;;
56233;SDS011;42141;53.240;6.580;2023-04-24T02:19:33;1.65;;;1.35;;
56233;SDS011;42141;53.240;6.580;2023-04-24T02:21:58;1.75;;;1.65;;
56233;SDS011;42141;53.240;6.580;2023-04-24T02:24:24;2.25;;;1.95;;
56233;SDS011;42141;53.240;6.580;2023-04-24T02:26:50;2.03;;;1.80;;
56233;SDS011;42141;53.240;6.580;2023-04-24T02:29:15;1.85;;;1.65;;
56233;SDS011;42141;53.240;6.580;2023-04-24T02:31:41;2.80;;;1.77;;
56233;SDS011;42141;53.240;6.580;2023-04-24T02:34:07;4.82;;;2.20;;
56233;SDS011;42141;53.240;6.580;2023-04-24T02:36:33;3.53;;;2.10;;
56233;SDS011;42141;53.240;6.580;2023-04-24T02:38:59;2.90;;;2.60;;
56233;SDS011;42141;53.240;6.580;2023-04-24T02:41:26;3.55;;;3.25;;
56233;SDS011;42141;53.240;6.580;2023-04-24T02:43:57;2.90;;;2.60;;
56233;SDS011;42141;53.240;6.580;2023-04-24T02:46:23;2.28;;;2.08;;
56233;SDS011;42141;53.240;6.580;2023-04-24T02:48:48;3.05;;;2.75;;
56233;SDS011;42141;53.240;6.580;2023-04-24T02:51:14;3.08;;;2.78;;
56233;SDS011;42141;53.240;6.580;2023-04-24T02:53:40;4.28;;;3.17;;
56233;SDS011;42141;53.240;6.580;2023-04-24T02:56:05;4.13;;;3.15;;
56233;SDS011;42141;53.240;6.580;2023-04-24T02:58:31;3.53;;;3.10;;
56233;SDS011;42141;53.240;6.580;2023-04-24T03:00:57;5.78;;;3.47;;
56233;SDS011;42141;53.240;6.580;2023-04-24T03:03:22;3.60;;;3.30;;
56233;SDS011;42141;53.240;6.580;2023-04-24T03:05:48;3.80;;;3.35;;
56233;SDS011;42141;53.240;6.580;2023-04-24T03:08:15;4.20;;;3.55;;
56233;SDS011;42141;53.240;6.580;2023-04-24T03:10:41;5.70;;;4.00;;
56233;SDS011;42141;53.240;6.580;2023-04-24T03:13:06;4.45;;;3.83;;
56233;SDS011;42141;53.240;6.580;2023-04-24T03:15:32;3.55;;;3.25;;
56233;SDS011;42141;53.240;6.580;2023-04-24T03:17:58;4.18;;;3.78;;
56233;SDS011;42141;53.240;6.580;2023-04-24T03:20:24;5.45;;;4.18;;
56233;SDS011;42141;53.240;6.580;2023-04-24T03:22:49;4.55;;;3.80;;
56233;SDS011;42141;53.240;6.580;2023-04-24T03:25:15;7.35;;;5.47;;
56233;SDS011;42141;53.240;6.580;2023-04-24T03:27:41;5.68;;;4.30;;
56233;SDS011;42141;53.240;6.580;2023-04-24T03:30:07;7.00;;;4.63;;
56233;SDS011;42141;53.240;6.580;2023-04-24T03:32:33;4.82;;;4.30;;
56233;SDS011;42141;53.240;6.580;2023-04-24T03:34:59;4.78;;;4.28;;
56233;SDS011;42141;53.240;6.580;2023-04-24T03:37:25;5.35;;;4.85;;
56233;SDS011;42141;53.240;6.580;2023-04-24T03:39:51;6.57;;;5.55;;
56233;SDS011;42141;53.240;6.580;2023-04-24T03:42:17;6.32;;;5.72;;
56233;SDS011;42141;53.240;6.580;2023-04-24T03:44:43;6.65;;;5.63;;
56233;SDS011;42141;53.240;6.580;2023-04-24T03:47:08;7.35;;;6.65;;
56233;SDS011;42141;53.240;6.580;2023-04-24T03:49:34;7.45;;;6.72;;
56233;SDS011;42141;53.240;6.580;2023-04-24T03:52:00;8.05;;;7.13;;
56233;SDS011;42141;53.240;6.580;2023-04-24T03:54:26;7.63;;;6.93;;
56233;SDS011;42141;53.240;6.580;2023-04-24T03:56:52;8.77;;;7.75;;
56233;SDS011;42141;53.240;6.580;2023-04-24T03:59:18;9.38;;;8.05;;
56233;SDS011;42141;53.240;6.580;2023-04-24T04:01:43;9.02;;;8.10;;
56233;SDS011;42141;53.240;6.580;2023-04-24T04:04:10;9.52;;;8.55;;
56233;SDS011;42141;53.240;6.580;2023-04-24T04:06:36;9.73;;;8.75;;
56233;SDS011;42141;53.240;6.580;2023-04-24T04:09:02;10.80;;;8.63;;
56233;SDS011;42141;53.240;6.580;2023-04-24T04:11:28;10.85;;;8.77;;
56233;SDS011;42141;53.240;6.580;2023-04-24T04:13:54;9.48;;;8.20;;
56233;SDS011;42141;53.240;6.580;2023-04-24T04:16:20;9.77;;;8.82;;
56233;SDS011;42141;53.240;6.580;2023-04-24T04:18:46;12.68;;;9.65;;
56233;SDS011;42141;53.240;6.580;2023-04-24T04:21:12;11.27;;;8.50;;
56233;SDS011;42141;53.240;6.580;2023-04-24T04:23:37;9.55;;;8.55;;
56233;SDS011;42141;53.240;6.580;2023-04-24T04:26:03;9.77;;;8.40;;
56233;SDS011;42141;53.240;6.580;2023-04-24T04:28:29;8.88;;;7.93;;
56233;SDS011;42141;53.240;6.580;2023-04-24T04:30:58;10.80;;;9.43;;
56233;SDS011;42141;53.240;6.580;2023-04-24T04:33:24;8.60;;;7.55;;
56233;SDS011;42141;53.240;6.580;2023-04-24T04:35:50;8.38;;;7.47;;
56233;SDS011;42141;53.240;6.580;2023-04-24T04:38:21;9.13;;;8.10;;
56233;SDS011;42141;53.240;6.580;2023-04-24T04:40:47;7.65;;;6.88;;
56233;SDS011;42141;53.240;6.580;2023-04-24T04:43:13;8.52;;;7.28;;
56233;SDS011;42141;53.240;6.580;2023-04-24T04:45:40;6.97;;;6.28;;
56233;SDS011;42141;53.240;6.580;2023-04-24T04:48:07;11.27;;;6.57;;
56233;SDS011;42141;53.240;6.580;2023-04-24T04:50:37;6.40;;;5.80;;
56233;SDS011;42141;53.240;6.580;2023-04-24T04:53:03;7.20;;;6.25;;
56233;SDS011;42141;53.240;6.580;2023-04-24T04:55:29;8.80;;;5.20;;
56233;SDS011;42141;53.240;6.580;2023-04-24T04:57:55;5.93;;;5.32;;
56233;SDS011;42141;53.240;6.580;2023-04-24T05:00:21;8.00;;;6.15;;
56233;SDS011;42141;53.240;6.580;2023-04-24T05:02:49;6.22;;;5.68;;
56233;SDS011;42141;53.240;6.580;2023-04-24T05:05:15;6.05;;;5.43;;
56233;SDS011;42141;53.240;6.580;2023-04-24T05:07:42;5.20;;;4.70;;
56233;SDS011;42141;53.240;6.580;2023-04-24T05:10:07;6.50;;;4.88;;
56233;SDS011;42141;53.240;6.580;2023-04-24T05:12:33;4.68;;;4.18;;
56233;SDS011;42141;53.240;6.580;2023-04-24T05:14:59;3.20;;;2.60;;
56233;SDS011;42141;53.240;6.580;2023-04-24T05:17:25;3.30;;;3.00;;
56233;SDS011;42141;53.240;6.580;2023-04-24T05:19:51;5.05;;;3.42;;
56233;SDS011;42141;53.240;6.580;2023-04-24T05:22:17;4.97;;;3.63;;
56233;SDS011;42141;53.240;6.580;2023-04-24T05:24:45;4.22;;;3.38;;
56233;SDS011;42141;53.240;6.580;2023-04-24T05:27:10;3.35;;;2.88;;
56233;SDS011;42141;53.240;6.580;2023-04-24T05:29:36;4.28;;;3.00;;
56233;SDS011;42141;53.240;6.580;2023-04-24T05:32:02;4.80;;;3.13;;
56233;SDS011;42141;53.240;6.580;2023-04-24T05:34:27;9.25;;;5.70;;
56233;SDS011;42141;53.240;6.580;2023-04-24T05:36:53;4.82;;;2.97;;
56233;SDS011;42141;53.240;6.580;2023-04-24T05:39:19;3.13;;;2.55;;
56233;SDS011;42141;53.240;6.580;2023-04-24T05:41:45;6.03;;;3.10;;
56233;SDS011;42141;53.240;6.580;2023-04-24T05:44:11;5.50;;;2.88;;
56233;SDS011;42141;53.240;6.580;2023-04-24T05:46:37;4.55;;;3.05;;
56233;SDS011;42141;53.240;6.580;2023-04-24T05:49:02;6.13;;;3.60;;
56233;SDS011;42141;53.240;6.580;2023-04-24T05:51:28;5.13;;;3.40;;
56233;SDS011;42141;53.240;6.580;2023-04-24T05:53:54;6.50;;;3.22;;
56233;SDS011;42141;53.240;6.580;2023-04-24T05:56:20;3.75;;;2.78;;
56233;SDS011;42141;53.240;6.580;2023-04-24T05:58:46;4.40;;;3.20;;
56233;SDS011;42141;53.240;6.580;2023-04-24T06:01:12;5.85;;;2.92;;
56233;SDS011;42141;53.240;6.580;2023-04-24T06:03:41;4.90;;;3.67;;
56233;SDS011;42141;53.240;6.580;2023-04-24T06:06:07;3.28;;;2.90;;
56233;SDS011;42141;53.240;6.580;2023-04-24T06:08:33;6.80;;;3.05;;
56233;SDS011;42141;53.240;6.580;2023-04-24T06:11:00;8.82;;;3.25;;
56233;SDS011;42141;53.240;6.580;2023-04-24T06:13:25;6.53;;;2.75;;
56233;SDS011;42141;53.240;6.580;2023-04-24T06:15:51;4.45;;;3.20;;
56233;SDS011;42141;53.240;6.580;2023-04-24T06:18:18;5.38;;;2.90;;
56233;SDS011;42141;53.240;6.580;2023-04-24T06:20:44;5.75;;;3.42;;
56233;SDS011;42141;53.240;6.580;2023-04-24T06:23:11;5.68;;;3.10;;
56233;SDS011;42141;53.240;6.580;2023-04-24T06:25:37;6.25;;;3.25;;
56233;SDS011;42141;53.240;6.580;2023-04-24T06:28:03;8.25;;;4.00;;
56233;SDS011;42141;53.240;6.580;2023-04-24T06:30:29;6.75;;;3.97;;
56233;SDS011;42141;53.240;6.580;2023-04-24T06:32:55;9.75;;;3.78;;
56233;SDS011;42141;53.240;6.580;2023-04-24T06:35:21;9.95;;;3.60;;
56233;SDS011;42141;53.240;6.580;2023-04-24T06:37:47;5.43;;;2.95;;
56233;SDS011;42141;53.240;6.580;2023-04-24T06:40:13;7.00;;;2.83;;
56233;SDS011;42141;53.240;6.580;2023-04-24T06:42:39;3.70;;;3.00;;
56233;SDS011;42141;53.240;6.580;2023-04-24T06:45:04;4.35;;;3.25;;
56233;SDS011;42141;53.240;6.580;2023-04-24T06:47:30;8.57;;;3.58;;
56233;SDS011;42141;53.240;6.580;2023-04-24T06:49:56;11.07;;;3.97;;
56233;SDS011;42141;53.240;6.580;2023-04-24T06:52:22;6.80;;;3.97;;
56233;SDS011;42141;53.240;6.580;2023-04-24T06:54:48;8.13;;;2.72;;
56233;SDS011;42141;53.240;6.580;2023-04-24T06:57:14;7.50;;;3.75;;
56233;SDS011;42141;53.240;6.580;2023-04-24T06:59:41;7.82;;;2.88;;
56233;SDS011;42141;53.240;6.580;2023-04-24T07:02:07;4.63;;;1.73;;
56233;SDS011;42141;53.240;6.580;2023-04-24T07:04:33;11.20;;;2.42;;
56233;SDS011;42141;53.240;6.580;2023-04-24T07:06:59;17.42;;;3.22;;
56233;SDS011;42141;53.240;6.580;2023-04-24T07:09:25;4.18;;;1.33;;
56233;SDS011;42141;53.240;6.580;2023-04-24T07:11:51;4.00;;;1.40;;
56233;SDS011;42141;53.240;6.580;2023-04-24T07:14:18;5.25;;;1.98;;
56233;SDS011;42141;53.240;6.580;2023-04-24T07:16:45;2.60;;;1.30;;
56233;SDS011;42141;53.240;6.580;2023-04-24T07:19:11;4.47;;;1.13;;
56233;SDS011;42141;53.240;6.580;2023-04-24T07:21:38;5.38;;;1.73;;
56233;SDS011;42141;53.240;6.580;2023-04-24T07:24:03;4.55;;;1.15;;
56233;SDS011;42141;53.240;6.580;2023-04-24T07:26:30;1.95;;;1.35;;
56233;SDS011;42141;53.240;6.580;2023-04-24T07:28:56;2.63;;;1.10;;
56233;SDS011;42141;53.240;6.580;2023-04-24T07:31:22;5.22;;;1.25;;
56233;SDS011;42141;53.240;6.580;2023-04-24T07:33:48;7.43;;;0.85;;
56233;SDS011;42141;53.240;6.580;2023-04-24T07:36:13;7.38;;;2.20;;
56233;SDS011;42141;53.240;6.580;2023-04-24T07:38:47;6.38;;;1.50;;
56233;SDS011;42141;53.240;6.580;2023-04-24T07:41:13;7.32;;;1.85;;
56233;SDS011;42141;53.240;6.580;2023-04-24T07:43:39;3.40;;;1.98;;
56233;SDS011;42141;53.240;6.580;2023-04-24T07:46:05;8.73;;;1.75;;
56233;SDS011;42141;53.240;6.580;2023-04-24T07:48:31;6.50;;;1.75;;
56233;SDS011;42141;53.240;6.580;2023-04-24T07:50:57;5.68;;;1.27;;
56233;SDS011;42141;53.240;6.580;2023-04-24T07:53:23;8.35;;;1.50;;
56233;SDS011;42141;53.240;6.580;2023-04-24T07:55:49;4.28;;;1.50;;
56233;SDS011;42141;53.240;6.580;2023-04-24T07:58:15;4.10;;;1.90;;
56233;SDS011;42141;53.240;6.580;2023-04-24T08:00:40;6.85;;;2.83;;
56233;SDS011;42141;53.240;6.580;2023-04-24T08:03:06;7.25;;;3.13;;
56233;SDS011;42141;53.240;6.580;2023-04-24T08:05:31;8.18;;;4.07;;
56233;SDS011;42141;53.240;6.580;2023-04-24T08:07:57;9.75;;;4.45;;
56233;SDS011;42141;53.240;6.580;2023-04-24T08:10:23;9.70;;;4.57;;
56233;SDS011;42141;53.240;6.580;2023-04-24T08:12:50;13.07;;;4.97;;
56233;SDS011;42141;53.240;6.580;2023-04-24T08:15:16;14.85;;;5.82;;
56233;SDS011;42141;53.240;6.580;2023-04-24T08:17:42;16.33;;;7.93;;
56233;SDS011;42141;53.240;6.580;2023-04-24T08:20:08;20.23;;;9.73;;
56233;SDS011;42141;53.240;6.580;2023-04-24T08:22:38;25.35;;;12.75;;
56233;SDS011;42141;53.240;6.580;2023-04-24T08:25:08;18.70;;;10.20;;
56233;SDS011;42141;53.240;6.580;2023-04-24T08:27:36;14.25;;;9.40;;
56233;SDS011;42141;53.240;6.580;2023-04-24T08:30:02;25.40;;;10.10;;
56233;SDS011;42141;53.240;6.580;2023-04-24T08:32:29;19.27;;;9.70;;
56233;SDS011;42141;53.240;6.580;2023-04-24T08:34:58;20.48;;;10.27;;
56233;SDS011;42141;53.240;6.580;2023-04-24T08:37:25;19.45;;;8.80;;
56233;SDS011;42141;53.240;6.580;2023-04-24T08:39:51;19.65;;;9.27;;
56233;SDS011;42141;53.240;6.580;2023-04-24T08:42:18;17.92;;;9.30;;
56233;SDS011;42141;53.240;6.580;2023-04-24T08:44:44;15.60;;;8.40;;
56233;SDS011;42141;53.240;6.580;2023-04-24T08:47:11;16.65;;;9.07;;
56233;SDS011;42141;53.240;6.580;2023-04-24T08:49:37;16.75;;;7.72;;
56233;SDS011;42141;53.240;6.580;2023-04-24T08:52:04;16.52;;;7.25;;
56233;SDS011;42141;53.240;6.580;2023-04-24T08:54:31;20.40;;;8.20;;
56233;SDS011;42141;53.240;6.580;2023-04-24T08:56:59;22.48;;;7.53;;
56233;SDS011;42141;53.240;6.580;2023-04-24T08:59:31;16.70;;;6.93;;
56233;SDS011;42141;53.240;6.580;2023-04-24T09:01:57;18.40;;;8.55;;
56233;SDS011;42141;53.240;6.580;2023-04-24T09:04:23;19.42;;;7.78;;
56233;SDS011;42141;53.240;6.580;2023-04-24T09:06:50;12.75;;;7.65;;
56233;SDS011;42141;53.240;6.580;2023-04-24T09:09:20;15.73;;;7.82;;
56233;SDS011;42141;53.240;6.580;2023-04-24T09:11:48;20.13;;;8.80;;
56233;SDS011;42141;53.240;6.580;2023-04-24T09:14:15;14.55;;;8.43;;
56233;SDS011;42141;53.240;6.580;2023-04-24T09:16:42;13.45;;;7.82;;
56233;SDS011;42141;53.240;6.580;2023-04-24T09:19:08;17.75;;;7.75;;
56233;SDS011;42141;53.240;6.580;2023-04-24T09:21:34;17.45;;;7.75;;
56233;SDS011;42141;53.240;6.580;2023-04-24T09:24:01;13.80;;;7.55;;
56233;SDS011;42141;53.240;6.580;2023-04-24T09:26:31;18.00;;;6.95;;
56233;SDS011;42141;53.240;6.580;2023-04-24T09:28:59;19.67;;;7.28;;
56233;SDS011;42141;53.240;6.580;2023-04-24T09:31:26;15.65;;;6.72;;
56233;SDS011;42141;53.240;6.580;2023-04-24T09:33:54;12.57;;;6.05;;
56233;SDS011;42141;53.240;6.580;2023-04-24T09:36:31;10.50;;;5.18;;
56233;SDS011;42141;53.240;6.580;2023-04-24T09:38:59;14.85;;;5.78;;
56233;SDS011;42141;53.240;6.580;2023-04-24T09:41:26;12.65;;;6.75;;
56233;SDS011;42141;53.240;6.580;2023-04-24T09:43:54;11.95;;;6.22;;
56233;SDS011;42141;53.240;6.580;2023-04-24T09:46:20;13.50;;;5.95;;
56233;SDS011;42141;53.240;6.580;2023-04-24T09:48:47;14.43;;;6.13;;
56233;SDS011;42141;53.240;6.580;2023-04-24T09:51:13;18.65;;;5.70;;
56233;SDS011;42141;53.240;6.580;2023-04-24T09:53:44;18.77;;;5.50;;
56233;SDS011;42141;53.240;6.580;2023-04-24T09:56:11;12.00;;;4.45;;
56233;SDS011;42141;53.240;6.580;2023-04-24T09:58:40;13.25;;;4.97;;
56233;SDS011;42141;53.240;6.580;2023-04-24T10:01:05;13.27;;;5.63;;
56233;SDS011;42141;53.240;6.580;2023-04-24T10:03:32;10.15;;;3.70;;
56233;SDS011;42141;53.240;6.580;2023-04-24T10:06:02;10.65;;;3.45;;
56233;SDS011;42141;53.240;6.580;2023-04-24T10:08:33;11.48;;;4.18;;
56233;SDS011;42141;53.240;6.580;2023-04-24T10:11:00;14.80;;;4.60;;
56233;SDS011;42141;53.240;6.580;2023-04-24T10:13:27;7.07;;;3.40;;
56233;SDS011;42141;53.240;6.580;2023-04-24T10:15:53;8.90;;;2.70;;
56233;SDS011;42141;53.240;6.580;2023-04-24T10:18:21;9.48;;;3.15;;
56233;SDS011;42141;53.240;6.580;2023-04-24T10:20:47;7.53;;;3.00;;
56233;SDS011;42141;53.240;6.580;2023-04-24T10:23:13;6.78;;;2.58;;
56233;SDS011;42141;53.240;6.580;2023-04-24T10:25:40;14.02;;;2.67;;
56233;SDS011;42141;53.240;6.580;2023-04-24T10:28:06;13.88;;;3.45;;
56233;SDS011;42141;53.240;6.580;2023-04-24T10:30:32;6.30;;;2.22;;
56233;SDS011;42141;53.240;6.580;2023-04-24T10:33:03;9.38;;;2.28;;
56233;SDS011;42141;53.240;6.580;2023-04-24T10:35:31;11.18;;;2.30;;
56233;SDS011;42141;53.240;6.580;2023-04-24T10:38:03;9.55;;;2.25;;
56233;SDS011;42141;53.240;6.580;2023-04-24T10:40:33;10.30;;;2.15;;
56233;SDS011;42141;53.240;6.580;2023-04-24T10:43:04;6.22;;;2.58;;
56233;SDS011;42141;53.240;6.580;2023-04-24T10:45:33;9.05;;;1.88;;
56233;SDS011;42141;53.240;6.580;2023-04-24T10:48:06;8.68;;;1.83;;
56233;SDS011;42141;53.240;6.580;2023-04-24T10:50:51;9.20;;;1.90;;
56233;SDS011;42141;53.240;6.580;2023-04-24T10:53:19;8.50;;;1.55;;
56233;SDS011;42141;53.240;6.580;2023-04-24T10:55:49;8.95;;;2.45;;
56233;SDS011;42141;53.240;6.580;2023-04-24T10:58:44;9.90;;;2.17;;
56233;SDS011;42141;53.240;6.580;2023-04-24T11:03:50;5.53;;;1.40;;
56233;SDS011;42141;53.240;6.580;2023-04-24T11:06:28;13.90;;;2.00;;
56233;SDS011;42141;53.240;6.580;2023-04-24T11:09:07;6.30;;;1.75;;
56233;SDS011;42141;53.240;6.580;2023-04-24T11:11:37;4.47;;;1.65;;
56233;SDS011;42141;53.240;6.580;2023-04-24T11:14:08;4.93;;;1.50;;
56233;SDS011;42141;53.240;6.580;2023-04-24T11:22:00;12.05;;;1.65;;
56233;SDS011;42141;53.240;6.580;2023-04-24T11:35:02;6.25;;;1.17;;
56233;SDS011;42141;53.240;6.580;2023-04-24T11:40:01;5.55;;;1.35;;
56233;SDS011;42141;53.240;6.580;2023-04-24T11:42:29;9.30;;;2.85;;
56233;SDS011;42141;53.240;6.580;2023-04-24T11:45:10;15.25;;;1.77;;
56233;SDS011;42141;53.240;6.580;2023-04-24T11:47:37;5.43;;;1.05;;
56233;SDS011;42141;53.240;6.580;2023-04-24T11:50:04;10.65;;;1.80;;
56233;SDS011;42141;53.240;6.580;2023-04-24T11:52:33;11.65;;;0.80;;
56233;SDS011;42141;53.240;6.580;2023-04-24T11:55:01;7.40;;;1.48;;
56233;SDS011;42141;53.240;6.580;2023-04-24T11:57:28;5.82;;;1.13;;
56233;SDS011;42141;53.240;6.580;2023-04-24T11:59:59;6.32;;;1.08;;
56233;SDS011;42141;53.240;6.580;2023-04-24T12:02:26;5.55;;;1.20;;
56233;SDS011;42141;53.240;6.580;2023-04-24T12:04:53;9.85;;;1.15;;
56233;SDS011;42141;53.240;6.580;2023-04-24T12:07:19;10.85;;;0.90;;
56233;SDS011;42141;53.240;6.580;2023-04-24T12:09:47;10.07;;;1.38;;
56233;SDS011;42141;53.240;6.580;2023-04-24T12:12:18;5.93;;;1.10;;
56233;SDS011;42141;53.240;6.580;2023-04-24T12:17:10;5.35;;;1.00;;
56233;SDS011;42141;53.240;6.580;2023-04-24T12:19:36;9.40;;;1.52;;
56233;SDS011;42141;53.240;6.580;2023-04-24T12:22:03;6.45;;;1.17;;
56233;SDS011;42141;53.240;6.580;2023-04-24T12:24:30;6.88;;;0.88;;
56233;SDS011;42141;53.240;6.580;2023-04-24T12:26:56;5.30;;;1.27;;
56233;SDS011;42141;53.240;6.580;2023-04-24T12:29:23;4.95;;;0.85;;
56233;SDS011;42141;53.240;6.580;2023-04-24T12:31:53;3.92;;;0.85;;
56233;SDS011;42141;53.240;6.580;2023-04-24T12:34:19;4.53;;;0.82;;
56233;SDS011;42141;53.240;6.580;2023-04-24T12:36:46;8.30;;;0.77;;
56233;SDS011;42141;53.240;6.580;2023-04-24T12:39:19;5.70;;;1.45;;
56233;SDS011;42141;53.240;6.580;2023-04-24T12:41:57;2.25;;;0.80;;
56233;SDS011;42141;53.240;6.580;2023-04-24T12:44:31;1.77;;;0.60;;
56233;SDS011;42141;53.240;6.580;2023-04-24T12:46:59;5.63;;;0.60;;
56233;SDS011;42141;53.240;6.580;2023-04-24T12:49:31;6.32;;;0.50;;
56233;SDS011;42141;53.240;6.580;2023-04-24T12:51:58;2.40;;;0.50;;
56233;SDS011;42141;53.240;6.580;2023-04-24T12:54:23;10.10;;;0.90;;
56233;SDS011;42141;53.240;6.580;2023-04-24T12:56:49;3.47;;;1.15;;
56233;SDS011;42141;53.240;6.580;2023-04-24T12:59:15;7.15;;;1.00;;
56233;SDS011;42141;53.240;6.580;2023-04-24T13:01:41;10.32;;;0.80;;
56233;SDS011;42141;53.240;6.580;2023-04-24T13:04:07;3.95;;;0.70;;
56233;SDS011;42141;53.240;6.580;2023-04-24T13:06:32;4.90;;;0.75;;
56233;SDS011;42141;53.240;6.580;2023-04-24T13:08:58;5.13;;;0.80;;
56233;SDS011;42141;53.240;6.580;2023-04-24T13:11:24;5.25;;;0.80;;
56233;SDS011;42141;53.240;6.580;2023-04-24T13:13:50;2.85;;;0.70;;
56233;SDS011;42141;53.240;6.580;2023-04-24T13:16:16;5.95;;;1.42;;
56233;SDS011;42141;53.240;6.580;2023-04-24T13:18:41;6.95;;;1.00;;
56233;SDS011;42141;53.240;6.580;2023-04-24T13:21:07;8.63;;;1.75;;
56233;SDS011;42141;53.240;6.580;2023-04-24T13:23:33;5.63;;;0.77;;
56233;SDS011;42141;53.240;6.580;2023-04-24T13:25:59;4.85;;;0.68;;
56233;SDS011;42141;53.240;6.580;2023-04-24T13:28:26;8.65;;;0.63;;
56233;SDS011;42141;53.240;6.580;2023-04-24T13:30:52;8.93;;;0.65;;
56233;SDS011;42141;53.240;6.580;2023-04-24T13:33:18;6.78;;;1.08;;
56233;SDS011;42141;53.240;6.580;2023-04-24T13:35:44;5.50;;;0.60;;
56233;SDS011;42141;53.240;6.580;2023-04-24T13:38:09;2.45;;;0.52;;
56233;SDS011;42141;53.240;6.580;2023-04-24T13:40:35;7.93;;;0.85;;
56233;SDS011;42141;53.240;6.580;2023-04-24T13:43:02;5.72;;;0.52;;
56233;SDS011;42141;53.240;6.580;2023-04-24T13:45:28;3.65;;;0.75;;
56233;SDS011;42141;53.240;6.580;2023-04-24T13:47:53;4.03;;;0.40;;
56233;SDS011;42141;53.240;6.580;2023-04-24T13:50:19;6.60;;;0.52;;
56233;SDS011;42141;53.240;6.580;2023-04-24T13:52:45;2.50;;;0.35;;
56233;SDS011;42141;53.240;6.580;2023-04-24T13:55:11;4.15;;;0.60;;
56233;SDS011;42141;53.240;6.580;2023-04-24T13:57:37;1.70;;;0.70;;
56233;SDS011;42141;53.240;6.580;2023-04-24T14:00:03;4.88;;;0.40;;
56233;SDS011;42141;53.240;6.580;2023-04-24T14:02:29;1.92;;;0.28;;
56233;SDS011;42141;53.240;6.580;2023-04-24T14:04:55;5.30;;;0.75;;
56233;SDS011;42141;53.240;6.580;2023-04-24T14:07:21;4.72;;;0.80;;
56233;SDS011;42141;53.240;6.580;2023-04-24T14:09:46;5.43;;;1.30;;
56233;SDS011;42141;53.240;6.580;2023-04-24T14:12:12;7.28;;;0.85;;
56233;SDS011;42141;53.240;6.580;2023-04-24T14:14:39;5.38;;;0.82;;
56233;SDS011;42141;53.240;6.580;2023-04-24T14:17:05;3.80;;;1.15;;
56233;SDS011;42141;53.240;6.580;2023-04-24T14:19:30;10.68;;;1.55;;
56233;SDS011;42141;53.240;6.580;2023-04-24T14:21:56;8.10;;;1.95;;
56233;SDS011;42141;53.240;6.580;2023-04-24T14:24:23;7.95;;;1.25;;
56233;SDS011;42141;53.240;6.580;2023-04-24T14:26:49;14.50;;;1.67;;
56233;SDS011;42141;53.240;6.580;2023-04-24T14:29:15;8.68;;;1.85;;
56233;SDS011;42141;53.240;6.580;2023-04-24T14:31:42;7.07;;;1.10;;
56233;SDS011;42141;53.240;6.580;2023-04-24T14:34:09;6.75;;;1.60;;
56233;SDS011;42141;53.240;6.580;2023-04-24T14:36:35;11.32;;;2.80;;
56233;SDS011;42141;53.240;6.580;2023-04-24T14:39:00;12.13;;;1.70;;
56233;SDS011;42141;53.240;6.580;2023-04-24T14:41:31;9.88;;;1.30;;
56233;SDS011;42141;53.240;6.580;2023-04-24T14:43:58;14.25;;;1.90;;
56233;SDS011;42141;53.240;6.580;2023-04-24T14:46:24;10.15;;;2.20;;
56233;SDS011;42141;53.240;6.580;2023-04-24T14:48:50;5.97;;;1.15;;
56233;SDS011;42141;53.240;6.580;2023-04-24T14:51:15;9.88;;;1.98;;
56233;SDS011;42141;53.240;6.580;2023-04-24T14:53:41;13.00;;;1.58;;
56233;SDS011;42141;53.240;6.580;2023-04-24T14:56:07;7.18;;;1.35;;
56233;SDS011;42141;53.240;6.580;2023-04-24T14:58:32;6.88;;;2.17;;
56233;SDS011;42141;53.240;6.580;2023-04-24T15:00:59;3.83;;;0.77;;
56233;SDS011;42141;53.240;6.580;2023-04-24T15:03:25;5.75;;;1.30;;
56233;SDS011;42141;53.240;6.580;2023-04-24T15:05:51;7.55;;;1.50;;